地図

経路データ

SID SEASON NUMBER BASIN SUBBASIN NAME ISO_TIME NATURE LAT LON WMO_WIND WMO_PRES WMO_AGENCY TRACK_TYPE DIST2LAND LANDFALL IFLAG USA_AGENCY USA_ATCF_ID USA_LAT USA_LON USA_RECORD USA_STATUS USA_WIND USA_PRES USA_SSHS USA_R34_NE USA_R34_SE USA_R34_SW USA_R34_NW USA_R50_NE USA_R50_SE USA_R50_SW USA_R50_NW USA_R64_NE USA_R64_SE USA_R64_SW USA_R64_NW USA_POCI USA_ROCI USA_RMW USA_EYE TOKYO_LAT TOKYO_LON TOKYO_GRADE TOKYO_WIND TOKYO_PRES TOKYO_R50_DIR TOKYO_R50_LONG TOKYO_R50_SHORT TOKYO_R30_DIR TOKYO_R30_LONG TOKYO_R30_SHORT TOKYO_LAND CMA_LAT CMA_LON CMA_CAT CMA_WIND CMA_PRES HKO_LAT HKO_LON HKO_CAT HKO_WIND HKO_PRES NEWDELHI_LAT NEWDELHI_LON NEWDELHI_GRADE NEWDELHI_WIND NEWDELHI_PRES NEWDELHI_CI NEWDELHI_DP NEWDELHI_POCI REUNION_LAT REUNION_LON REUNION_TYPE REUNION_WIND REUNION_PRES REUNION_TNUM REUNION_CI REUNION_RMW REUNION_R34_NE REUNION_R34_SE REUNION_R34_SW REUNION_R34_NW REUNION_R50_NE REUNION_R50_SE REUNION_R50_SW REUNION_R50_NW REUNION_R64_NE REUNION_R64_SE REUNION_R64_SW REUNION_R64_NW BOM_LAT BOM_LON BOM_TYPE BOM_WIND BOM_PRES BOM_TNUM BOM_CI BOM_RMW BOM_R34_NE BOM_R34_SE BOM_R34_SW BOM_R34_NW BOM_R50_NE BOM_R50_SE BOM_R50_SW BOM_R50_NW BOM_R64_NE BOM_R64_SE BOM_R64_SW BOM_R64_NW BOM_ROCI BOM_POCI BOM_EYE BOM_POS_METHOD BOM_PRES_METHOD NADI_LAT NADI_LON NADI_CAT NADI_WIND NADI_PRES WELLINGTON_LAT WELLINGTON_LON WELLINGTON_WIND WELLINGTON_PRES DS824_LAT DS824_LON DS824_STAGE DS824_WIND DS824_PRES TD9636_LAT TD9636_LON TD9636_STAGE TD9636_WIND TD9636_PRES TD9635_LAT TD9635_LON TD9635_WIND TD9635_PRES TD9635_ROCI NEUMANN_LAT NEUMANN_LON NEUMANN_CLASS NEUMANN_WIND NEUMANN_PRES MLC_LAT MLC_LON MLC_CLASS MLC_WIND MLC_PRES USA_GUST BOM_GUST BOM_GUST_PER REUNION_GUST REUNION_GUST_PER USA_SEAHGT USA_SEARAD_NE USA_SEARAD_SE USA_SEARAD_SW USA_SEARAD_NW STORM_SPEED STORM_DIR
1881224N26271 1881 28 NA GM NOT_NAMED 1881-08-11 12:00:00 TS 25.6000 -88.7000 40 hurdat_atl main 381 379 O_____________ hurdat_atl AL021881 25.6000 -88.7000 TS 40 0 8 270
1881224N26271 1881 28 NA GM NOT_NAMED 1881-08-11 15:00:00 TS 25.6028 -89.1525 main 379 379 P_____________ AL021881 25.6028 -89.1525 TS 40 0 8 270
1881224N26271 1881 28 NA GM NOT_NAMED 1881-08-11 18:00:00 TS 25.6000 -89.6000 40 hurdat_atl main 382 382 O_____________ hurdat_atl AL021881 25.6000 -89.6000 TS 40 0 8 269
1881224N26271 1881 28 NA GM NOT_NAMED 1881-08-11 21:00:00 TS 25.5923 -90.0426 main 389 389 P_____________ AL021881 25.5923 -90.0426 TS 40 0 8 270
1881224N26271 1881 28 NA GM NOT_NAMED 1881-08-12 00:00:00 TS 25.6000 -90.5000 40 hurdat_atl main 390 390 O_____________ hurdat_atl AL021881 25.6000 -90.5000 TS 40 0 9 273
1881224N26271 1881 28 NA GM NOT_NAMED 1881-08-12 03:00:00 TS 25.6425 -90.9999 main 390 380 P_____________ AL021881 25.6425 -90.9999 TS 40 0 9 276
1881224N26271 1881 28 NA GM NOT_NAMED 1881-08-12 06:00:00 TS 25.7000 -91.5000 40 hurdat_atl main 384 384 O_____________ hurdat_atl AL021881 25.7000 -91.5000 TS 40 0 9 276
1881224N26271 1881 28 NA GM NOT_NAMED 1881-08-12 09:00:00 TS 25.7347 -91.9502 main 394 387 P_____________ AL021881 25.7347 -91.9502 TS 40 0 8 277
1881224N26271 1881 28 NA GM NOT_NAMED 1881-08-12 12:00:00 TS 25.8000 -92.4000 40 hurdat_atl main 397 394 O_____________ hurdat_atl AL021881 25.8000 -92.4000 TS 40 0 9 283
1881224N26271 1881 28 NA GM NOT_NAMED 1881-08-12 15:00:00 TS 25.9350 -92.8999 main 406 369 P_____________ AL021881 25.9350 -92.8999 TS 40 0 9 288
1881224N26271 1881 28 NA GM NOT_NAMED 1881-08-12 18:00:00 TS 26.1000 -93.4000 40 hurdat_atl main 369 329 O_____________ hurdat_atl AL021881 26.1000 -93.4000 TS 40 0 9 290
1881224N26271 1881 28 NA GM NOT_NAMED 1881-08-12 21:00:00 TS 26.2423 -93.8577 main 320 282 P_____________ AL021881 26.2423 -93.8577 TS 40 0 9 290
1881224N26271 1881 28 NA GM NOT_NAMED 1881-08-13 00:00:00 TS 26.4000 -94.3000 40 hurdat_atl main 282 245 O_____________ hurdat_atl AL021881 26.4000 -94.3000 TS 40 0 9 293
1881224N26271 1881 28 NA GM NOT_NAMED 1881-08-13 03:00:00 TS 26.5925 -94.7724 main 238 209 P_____________ AL021881 26.5925 -94.7724 TS 40 0 9 296
1881224N26271 1881 28 NA GM NOT_NAMED 1881-08-13 06:00:00 TS 26.8000 -95.2000 40 hurdat_atl main 209 179 O_____________ hurdat_atl AL021881 26.8000 -95.2000 TS 40 0 8 301
1881224N26271 1881 28 NA GM NOT_NAMED 1881-08-13 09:00:00 TS 26.9922 -95.5079 main 179 146 P_____________ AL021881 26.9922 -95.5079 TS 40 0 7 307
1881224N26271 1881 28 NA GM NOT_NAMED 1881-08-13 12:00:00 TS 27.2000 -95.8000 40 hurdat_atl main 146 104 O_____________ hurdat_atl AL021881 27.2000 -95.8000 TS 40 0 8 305
1881224N26271 1881 28 NA GM NOT_NAMED 1881-08-13 15:00:00 TS 27.4331 -96.2068 main 104 53 P_____________ AL021881 27.4331 -96.2068 TS 40 0 9 305
1881224N26271 1881 28 NA GM NOT_NAMED 1881-08-13 18:00:00 TS 27.7000 -96.6000 40 hurdat_atl main 53 11 O_____________ hurdat_atl AL021881 27.7000 -96.6000 TS 40 0 8 313
1881224N26271 1881 28 NA GM NOT_NAMED 1881-08-13 21:00:00 TS 28.0000 -96.9000 40 hurdat_atl main 11 0 O_____________ hurdat_atl AL021881 28.0000 -96.9000 L TS 40 0 8 319
1881224N26271 1881 28 NA NA NOT_NAMED 1881-08-14 00:00:00 TS 28.3000 -97.2000 30 hurdat_atl main 0 0 O_____________ hurdat_atl AL021881 28.3000 -97.2000 TD 30 -1 8 321
1881224N26271 1881 28 NA NA NOT_NAMED 1881-08-14 03:00:00 TS 28.5931 -97.4537 main 0 0 P_____________ AL021881 28.5931 -97.4537 TD 30 -1 7 324
1881224N26271 1881 28 NA NA NOT_NAMED 1881-08-14 06:00:00 TS 28.9000 -97.7000 30 hurdat_atl main 0 0 O_____________ hurdat_atl AL021881 28.9000 -97.7000 TD 30 -1 8 323
1881224N26271 1881 28 NA NA NOT_NAMED 1881-08-14 09:00:00 TS 29.2049 -97.9855 main 0 0 P_____________ AL021881 29.2049 -97.9855 TD 30 -1 9 323
1881224N26271 1881 28 NA NA NOT_NAMED 1881-08-14 12:00:00 TS 29.6000 -98.3000 30 hurdat_atl main 0 0 O_____________ hurdat_atl AL021881 29.6000 -98.3000 TD 30 -1 11 329
1881224N26271 1881 28 NA NA NOT_NAMED 1881-08-14 15:00:00 TS 30.1527 -98.6413 main 0 0 P_____________ AL021881 30.1527 -98.6413 TD 30 -1 13 333
1881224N26271 1881 28 NA NA NOT_NAMED 1881-08-14 18:00:00 TS 30.8000 -99.0000 30 hurdat_atl main 0 O_____________ hurdat_atl AL021881 30.8000 -99.0000 TD 30 -1 14 334

IBTrACS Databaseについて

本データベースは、米国NOAAが公開する1842年以降の世界の熱帯低気圧のベストトラックデータアーカイブInternational Best Track Archive for Climate Stewardship (IBTrACS)を、ウェブで閲覧しやすい形式に変換したものです。

最終更新日:2021-11-26